Palmdale, FL (33944)

10:06 PM EDT on July 30, 2014 (GMT -0400)
Imperial Grove (KFLVENUS4) Elev 164 ft | 27.12 °N, 81.33 °W | Change Station

Current weather conditions updated 27 seconds ago

Partly Cloudy
Partly Cloudy
77.9 °F
Feels Like 80 °F
N
0.0
Wind Variable Wind from NE
Gusts 14.0 mph

Tomorrow is forecast to be Cooler than today. Thunderstorms developing in the afternoon.

Today
High -- | Low -- °F
--% Chance of Precip.
Yesterday
High -- | Low -- °F
Precip. -- in
6:48 AM 8:14 PM
Waxing Crescent, 15% visible
Pressure 29.99 in
Visibility 10.0 miles
Clouds Few 7500 ft
Heat Index 80 °F
Dew Point 75 °F
Humidity 92%
Rainfall 0.64 in
Snow Depth Not available.
UV 0.0 out of 12
Pollen 3.30 out of 12
Air Quality Not available.
Flu Activity Not available.
METAR KIMM 310155Z AUTO 00000KT 10SM FEW075 26/26 A2999 RMK A01 P000

More Conditions Fewer Conditions

Pressure 29.99 in
Visibility 10.0 miles
Clouds Few 7500 ft
Heat Index 80 °F
Dew Point 75 °F
Humidity 92%
Rainfall 0.64 in
Snow Depth Not available.
UV 0.0 out of 12
Pollen 3.30 out of 12
Air Quality Not available.
Flu Activity Not available.
METAR KIMM 310155Z AUTO 00000KT 10SM FEW075 26/26 A2999 RMK A01 P000

More Conditions Fewer Conditions

10-Day Weather Forecast

Almanac

Astronomy

Jul. 30, 2014 Rise Set
Actual Time 6:48 AM EDT 8:14 PM EDT
Civil Twilight 6:23 AM EDT 8:39 PM EDT
Nautical Twilight 5:53 AM EDT 9:09 PM EDT
Astronomical Twilight 5:22 AM EDT 9:40 PM EDT
Moon 9:55 AM EDT (7/30) 10:22 PM EDT (7/30)
Length of Visible Light 14h 16m
Length of Day
13h 25m
Tomorrow will be 1m 10s shorter.
Waxing Crescent, 15% of the Moon is Illuminated
Today
Waxing Crescent
Aug 3
First Quarter
Aug 10
Full
Aug 17
Last Quarter
Aug 25
New

Today's Extremes

State Highs State Lows

Community

WunderPhotos

Upload Photos

1,739,267 photos uploaded!

Nearby

Snow Depth

Station Depth Elevation
No new snow has been reported.

Earthquake Activity

City Distance Mag. Time & Date
No recent earthquake activity has been reported nearby.
Minimum magnitude displayed is 2.5.

Coastal Water Temperatures

Place Temperature
Lake Worth, FL 84.0 °F
Naples, FL 93.0 °F
Fort Myers, FL 90.0 °F

Nearby Weather Stations

Station Location Temp. Heat Index Dew Point Humidity Wind Precip. Elev Updated Type
Imperial Grove, Venus, FL 77.9 °F 80 °F 75 °F 92% NE  at  0.0 mph 0.00 in / hr 164 ft 10:06 PM EDT Normal
Gator Grove, Venus, FL 76.9 °F 78 °F 75 °F 93% SSW  at  0.0 mph 0.00 in / hr 92 ft 10:04 PM EDT Normal
RAWS BRIGHTON FL, Okeechobee, FL 78 °F 81 °F 78 °F 100% ESE  at  2 mph 0.00 in / hr 15 ft 9:32 PM EDT MADIS
SFWMD S75WX, Lake Placid, FL 78 °F 81 °F 75 °F 91% NE  at  8 mph 0.00 in / hr 26 ft 8:45 PM EDT MADIS
SFWMD Lake Oke West End, Moore Haven, FL 80 °F 85 °F 75 °F 84% SSW  at  9 mph 0.00 in / hr 14 ft 7:45 PM EDT MADIS
Gary & Lori River Oaks Alva, Alva, FL 79.5 °F 84 °F 76 °F 88% West  at  0.0 mph 0.00 in / hr 11 ft 10:05 PM EDT Normal

Show More Stations Show Fewer Stations